Time;durP1;ratioP1;P1;durP2;ratioP2;P2;SDS_P1;SDS_P2;PMS_P1;PMS_P2;Temp;Humidity;BMP_temperature;BMP_pressure;BME280_temperature;BME280_humidity;BME280_pressure;Samples;Min_cycle;Max_cycle;Signal;HPM_P1;HPM_P2
2023/09/29 07:25:05;;;;;;;13.90;5.82;;;;;;;17.02;81.14;96905.41;2085256;28;20909;-64
2023/09/29 07:26:07;;;;;;;16.95;6.00;;;;;;;16.80;81.80;96906.78;2076605;28;20205;-64
2023/09/29 07:27:11;;;;;;;17.05;5.90;;;;;;;17.32;80.48;96901.63;2077630;28;20196;-64
2023/09/29 07:28:15;;;;;;;10.73;5.47;;;;;;;17.66;79.44;96907.25;2068415;28;20321;-63
2023/09/29 07:29:16;;;;;;;9.50;5.30;;;;;;;17.70;78.91;96906.06;2070076;28;20715;-63
2023/09/29 07:31:47;;;;;;;12.15;5.72;;;;;;;17.73;78.22;96900.59;2103445;27;20576;-63
2023/09/29 07:32:48;;;;;;;10.13;5.10;;;;;;;17.72;78.27;96899.72;2097345;28;20690;-63
2023/09/29 07:33:50;;;;;;;12.32;5.70;;;;;;;17.96;77.93;96906.94;2100157;28;20200;-63
2023/09/29 07:34:52;;;;;;;17.83;7.25;;;;;;;18.42;76.27;96900.16;2096884;28;20204;-63
2023/09/29 07:35:54;;;;;;;18.83;6.30;;;;;;;18.79;75.38;96907.19;2096859;28;20545;-63
2023/09/29 07:36:55;;;;;;;17.77;5.82;;;;;;;19.07;74.48;96913.94;2096855;28;20242;-63
2023/09/29 07:38:00;;;;;;;20.50;5.53;;;;;;;19.90;72.36;96906.78;2091632;28;20220;-63
2023/09/29 07:39:01;;;;;;;23.23;5.78;;;;;;;20.24;71.20;96920.03;2094077;28;20212;-63
2023/09/29 07:40:04;;;;;;;16.45;4.88;;;;;;;20.23;71.25;96923.66;2095939;28;20231;-63
2023/09/29 07:41:05;;;;;;;22.42;5.80;;;;;;;20.18;71.70;96916.06;2096790;28;20204;-63
2023/09/29 07:42:07;;;;;;;19.98;4.97;;;;;;;20.05;71.79;96908.22;2098080;28;20226;-63
2023/09/29 07:43:08;;;;;;;17.60;5.72;;;;;;;20.66;70.32;96912.22;2099154;28;20535;-64
2023/09/29 07:44:10;;;;;;;20.83;5.35;;;;;;;21.07;69.06;96914.31;2096939;28;20203;-64
2023/09/29 07:45:11;;;;;;;15.57;5.20;;;;;;;20.81;68.60;96915.47;2095927;28;20195;-64
2023/09/29 07:46:13;;;;;;;15.80;4.30;;;;;;;20.69;68.51;96916.44;2097938;28;20203;-64
2023/09/29 07:47:14;;;;;;;17.02;4.22;;;;;;;20.78;68.28;96909.56;2096328;28;20255;-64
2023/09/29 07:48:16;;;;;;;20.23;4.50;;;;;;;20.56;69.26;96913.94;2098417;28;20247;-64
2023/09/29 07:49:20;;;;;;;12.82;5.68;;;;;;;20.56;69.61;96919.25;2098759;28;20729;-64
2023/09/29 07:50:21;;;;;;;18.83;4.35;;;;;;;20.71;69.63;96917.22;2097159;28;20204;-64
2023/09/29 07:51:24;;;;;;;14.77;5.00;;;;;;;20.70;69.89;96920.78;2098185;28;20212;-64
2023/09/29 07:52:28;;;;;;;16.30;4.90;;;;;;;20.67;70.12;96918.38;2091231;28;20295;-64
2023/09/29 07:53:29;;;;;;;12.77;5.35;;;;;;;20.63;70.56;96923.09;2099781;28;20550;-64
2023/09/29 07:54:31;;;;;;;19.30;5.05;;;;;;;20.58;70.85;96924.44;2098254;28;20200;-64
2023/09/29 07:55:32;;;;;;;5.78;3.80;;;;;;;20.62;70.49;96918.75;2095524;28;20528;-64
2023/09/29 07:56:34;;;;;;;12.80;5.30;;;;;;;20.57;70.86;96920.94;2092631;28;20225;-64
2023/09/29 07:57:35;;;;;;;16.75;5.97;;;;;;;20.67;70.66;96921.88;2097016;28;20748;-65
2023/09/29 07:58:38;;;;;;;15.32;5.28;;;;;;;20.47;70.78;96920.00;2098251;28;20269;-65
2023/09/29 07:59:40;;;;;;;17.38;5.28;;;;;;;20.41;71.86;96923.97;2098107;28;20211;-65
2023/09/29 08:00:42;;;;;;;11.93;5.43;;;;;;;20.55;71.37;96923.69;2095771;28;20207;-65
2023/09/29 08:01:48;;;;;;;8.93;4.78;;;;;;;20.22;72.27;96916.66;2095089;28;20671;-65
2023/09/29 08:02:50;;;;;;;10.80;4.50;;;;;;;20.82;71.18;96918.97;2095562;28;20227;-65
2023/09/29 08:03:51;;;;;;;14.65;5.38;;;;;;;21.57;69.11;96906.53;2098188;28;20235;-65
2023/09/29 08:04:54;;;;;;;15.30;5.72;;;;;;;22.00;68.36;96909.97;2098257;28;20205;-65
2023/09/29 08:05:55;;;;;;;13.30;5.07;;;;;;;22.47;65.88;96920.09;2097423;28;20250;-65
2023/09/29 08:06:57;;;;;;;14.60;5.13;;;;;;;23.51;63.79;96911.59;2096737;28;20203;-65
2023/09/29 08:07:59;;;;;;;20.02;4.47;;;;;;;24.13;58.95;96911.19;2094239;28;20220;-65
2023/09/29 08:09:01;;;;;;;6.68;3.60;;;;;;;24.59;57.05;96908.53;2095540;28;20614;-65
2023/09/29 08:10:03;;;;;;;9.82;4.30;;;;;;;25.95;55.71;96910.19;2096304;28;20595;-65
2023/09/29 08:11:05;;;;;;;12.55;3.63;;;;;;;26.42;53.97;96909.75;2099027;28;20239;-65
2023/09/29 08:12:07;;;;;;;16.58;3.85;;;;;;;26.99;51.95;96917.13;2095651;28;20199;-65
2023/09/29 08:13:09;;;;;;;6.20;3.42;;;;;;;28.77;48.91;96916.34;2095977;28;20238;-66
2023/09/29 08:14:11;;;;;;;10.70;3.95;;;;;;;28.41;49.17;96914.13;2097999;28;20686;-65
2023/09/29 08:15:13;;;;;;;9.90;3.60;;;;;;;27.67;50.85;96917.84;2101835;28;20202;-65
2023/09/29 08:16:15;;;;;;;6.20;3.13;;;;;;;28.60;48.71;96918.22;2095645;28;20442;-66
2023/09/29 08:17:18;;;;;;;7.90;3.17;;;;;;;28.74;48.37;96919.34;2094188;28;20503;-66
2023/09/29 08:18:20;;;;;;;9.27;3.13;;;;;;;28.62;48.16;96920.72;2090874;28;20517;-66
2023/09/29 08:19:22;;;;;;;9.10;4.20;;;;;;;27.96;49.21;96924.50;2092247;28;20793;-66
2023/09/29 08:20:23;;;;;;;9.57;3.67;;;;;;;27.63;50.59;96916.50;2091161;28;20884;-66
2023/09/29 08:21:25;;;;;;;4.40;2.97;;;;;;;27.53;49.93;96921.22;2098864;28;20971;-65
2023/09/29 08:22:26;;;;;;;6.47;2.60;;;;;;;27.63;49.36;96915.66;2097539;28;20451;-66
2023/09/29 08:23:41;;;;;;;7.43;3.00;;;;;;;27.33;50.58;96918.00;2096158;28;20431;-66
2023/09/29 08:24:42;;;;;;;9.13;3.33;;;;;;;26.43;51.98;96924.00;2094401;28;20440;-65
2023/09/29 08:25:45;;;;;;;4.90;3.10;;;;;;;26.12;51.99;96922.72;2095207;28;20460;-67
2023/09/29 08:26:47;;;;;;;5.50;3.20;;;;;;;25.64;52.84;96918.72;2095737;28;20478;-65
2023/09/29 08:27:49;;;;;;;6.67;3.10;;;;;;;25.36;53.71;96918.84;2097261;28;20460;-65
2023/09/29 08:28:50;;;;;;;7.33;3.20;;;;;;;24.68;55.01;96918.34;2098816;28;20421;-65
2023/09/29 08:29:51;;;;;;;5.78;3.45;;;;;;;24.59;55.30;96927.22;2096500;28;20455;-66
2023/09/29 08:30:56;;;;;;;7.18;3.20;;;;;;;24.10;55.79;96914.16;2094600;28;20265;-66
2023/09/29 08:31:58;;;;;;;5.65;3.28;;;;;;;23.70;56.92;96916.06;2096161;28;20212;-65
2023/09/29 08:32:59;;;;;;;6.53;3.08;;;;;;;23.58;57.96;96914.53;2094408;28;20227;-65
2023/09/29 08:34:20;;;;;;;6.60;3.22;;;;;;;23.73;57.99;96905.13;2098799;28;20646;-66
2023/09/29 08:35:22;;;;;;;5.15;3.10;;;;;;;23.83;57.92;96909.56;2095939;28;20196;-66
2023/09/29 08:36:23;;;;;;;9.05;3.63;;;;;;;24.07;57.98;96903.75;2095655;28;20207;-66
2023/09/29 08:37:25;;;;;;;6.45;2.97;;;;;;;24.15;57.20;96909.22;2096484;28;20257;-65
2023/09/29 08:38:26;;;;;;;9.57;3.45;;;;;;;23.97;57.21;96906.47;2099806;28;20183;-66
2023/09/29 08:39:28;;;;;;;6.82;3.35;;;;;;;23.94;57.59;96910.25;2095559;28;20665;-65
2023/09/29 08:40:36;;;;;;;9.95;3.72;;;;;;;23.99;57.94;96901.81;2097848;28;20291;-65
2023/09/29 08:41:47;;;;;;;9.05;3.40;;;;;;;23.95;57.97;96905.78;2098815;28;20285;-65
2023/09/29 08:42:52;;;;;;;6.15;3.10;;;;;;;24.09;57.63;96904.47;2092397;28;20319;-66
2023/09/29 08:43:53;;;;;;;11.48;3.42;;;;;;;24.08;57.93;96910.78;2092022;28;20211;-65
2023/09/29 08:45:09;;;;;;;9.52;3.40;;;;;;;23.72;58.30;96918.56;2087973;28;20199;-65
2023/09/29 08:46:14;;;;;;;8.43;3.50;;;;;;;23.57;58.90;96920.88;2089474;28;20717;-66
2023/09/29 08:47:21;;;;;;;8.63;4.05;;;;;;;23.56;59.36;96922.69;2088980;28;20666;-65
2023/09/29 08:48:25;;;;;;;9.18;3.28;;;;;;;23.43;59.50;96923.00;2088551;28;20562;-65
2023/09/29 08:49:27;;;;;;;6.00;3.03;;;;;;;23.36;59.15;96924.53;2097466;28;20193;-65
2023/09/29 08:50:48;;;;;;;7.35;3.13;;;;;;;23.30;59.73;96917.97;2097848;28;20760;-65
2023/09/29 08:51:50;;;;;;;5.68;3.47;;;;;;;23.16;59.34;96921.06;2091577;28;20211;-65
2023/09/29 08:52:53;;;;;;;7.70;4.18;;;;;;;22.94;59.22;96919.47;2090157;28;20679;-65
2023/09/29 08:53:56;;;;;;;7.75;3.65;;;;;;;22.92;59.32;96913.44;2087142;28;20290;-65
2023/09/29 08:54:59;;;;;;;11.52;3.00;;;;;;;22.85;60.22;96920.31;2087009;28;20234;-65
2023/09/29 08:56:05;;;;;;;12.18;3.45;;;;;;;22.66;59.38;96914.84;2086026;28;20200;-65
2023/09/29 08:57:07;;;;;;;10.60;4.47;;;;;;;22.55;59.84;96906.97;2089313;28;20538;-65
2023/09/29 08:58:09;;;;;;;10.00;3.42;;;;;;;22.60;59.29;96903.88;2092622;28;20224;-65
2023/09/29 08:59:11;;;;;;;12.73;3.13;;;;;;;22.87;58.56;96913.88;2090170;28;20271;-66
2023/09/29 09:00:13;;;;;;;6.00;3.55;;;;;;;22.99;58.49;96912.75;2091743;28;20197;-65
2023/09/29 09:01:15;;;;;;;10.07;3.35;;;;;;;22.91;58.44;96914.44;2090044;28;20309;-65
2023/09/29 09:02:19;;;;;;;7.63;3.35;;;;;;;23.03;58.04;96915.13;2089138;28;20231;-65
2023/09/29 09:03:20;;;;;;;6.25;3.10;;;;;;;23.07;58.47;96914.72;2088338;28;20651;-66
2023/09/29 09:04:22;;;;;;;7.15;3.40;;;;;;;23.32;57.90;96901.81;2087561;28;20249;-65
2023/09/29 09:05:24;;;;;;;6.40;2.90;;;;;;;23.74;56.87;96914.78;2090459;28;20207;-65
2023/09/29 09:06:26;;;;;;;7.25;3.15;;;;;;;24.52;54.82;96910.13;2090160;28;20196;-65
2023/09/29 09:07:28;;;;;;;8.18;3.35;;;;;;;25.47;53.28;96904.38;2092149;28;20216;-65
2023/09/29 09:08:29;;;;;;;5.63;3.08;;;;;;;26.18;51.74;96907.84;2091445;28;20245;-65
2023/09/29 09:09:32;;;;;;;6.20;2.63;;;;;;;26.30;50.85;96905.72;2090794;28;20260;-65
2023/09/29 09:10:35;;;;;;;18.90;4.15;;;;;;;26.83;49.57;96906.38;2090459;28;20298;-66
2023/09/29 09:11:43;;;;;;;8.07;3.20;;;;;;;28.13;47.56;96911.06;2087398;28;20660;-65
2023/09/29 09:12:44;;;;;;;5.43;2.30;;;;;;;28.00;47.63;96915.09;2086676;28;20590;-65
2023/09/29 09:13:58;;;;;;;5.75;3.42;;;;;;;27.77;48.19;96906.06;2086999;28;20657;-66
2023/09/29 09:15:03;;;;;;;5.30;3.05;;;;;;;27.48;48.12;96913.66;2086895;28;20250;-65
2023/09/29 09:16:07;;;;;;;5.13;2.58;;;;;;;26.71;49.28;96906.66;2089237;28;20763;-66
2023/09/29 09:17:10;;;;;;;5.93;2.78;;;;;;;26.49;49.80;96909.97;2091016;28;20215;-66
2023/09/29 09:18:11;;;;;;;6.93;2.70;;;;;;;26.94;49.77;96911.44;2092340;28;20199;-65
2023/09/29 09:19:15;;;;;;;7.97;2.80;;;;;;;27.23;48.86;96918.16;2092115;28;20287;-66
2023/09/29 09:20:16;;;;;;;9.48;2.45;;;;;;;27.04;48.99;96912.09;2094401;28;20191;-66
2023/09/29 09:21:18;;;;;;;6.30;2.80;;;;;;;26.53;49.44;96911.31;2091704;28;20199;-67
2023/09/29 09:22:24;;;;;;;11.85;3.30;;;;;;;26.62;49.19;96913.00;2089544;28;20193;-66
2023/09/29 09:23:43;;;;;;;4.15;2.60;;;;;;;26.44;49.70;96915.81;2085002;28;20204;-66
2023/09/29 09:24:45;;;;;;;7.82;2.60;;;;;;;26.46;49.64;96911.16;2083638;28;20835;-66
2023/09/29 09:25:47;;;;;;;5.20;3.15;;;;;;;26.42;50.00;96912.44;2092721;28;20248;-66
2023/09/29 09:26:49;;;;;;;4.68;2.70;;;;;;;25.87;50.68;96906.47;2092289;28;20256;-66
2023/09/29 09:27:53;;;;;;;5.45;2.58;;;;;;;25.36;51.78;96919.69;2090975;28;20279;-67
2023/09/29 09:28:55;;;;;;;7.18;2.70;;;;;;;24.81;53.12;96911.78;2094548;28;20192;-66
2023/09/29 09:29:57;;;;;;;5.85;3.00;;;;;;;24.53;53.64;96918.00;2096158;28;20283;-67
2023/09/29 09:31:03;;;;;;;5.90;2.45;;;;;;;24.30;54.25;96912.22;2092326;28;20242;-66
2023/09/29 09:32:06;;;;;;;6.57;2.58;;;;;;;24.26;54.18;96916.16;2092372;28;20215;-66
2023/09/29 09:33:16;;;;;;;5.18;2.65;;;;;;;24.35;54.90;96911.78;2090326;28;20285;-66
2023/09/29 09:34:18;;;;;;;7.93;2.95;;;;;;;24.37;54.77;96910.63;2091268;28;20590;-66
2023/09/29 09:35:27;;;;;;;6.95;2.80;;;;;;;24.40;55.06;96907.66;2089108;28;20295;-66
2023/09/29 09:36:29;;;;;;;7.70;3.38;;;;;;;24.56;54.05;96920.34;2087790;28;20193;-66
2023/09/29 09:37:31;;;;;;;5.05;3.15;;;;;;;24.55;53.83;96916.00;2092169;28;20625;-66
2023/09/29 09:38:33;;;;;;;11.20;2.88;;;;;;;24.78;53.85;96913.81;2089703;28;20253;-66
2023/09/29 09:39:35;;;;;;;6.90;3.03;;;;;;;25.15;53.17;96909.28;2090437;28;20196;-66
2023/09/29 09:40:36;;;;;;;5.47;3.10;;;;;;;25.27;53.15;96918.72;2089945;28;20191;-66
2023/09/29 09:41:42;;;;;;;6.75;2.90;;;;;;;25.01;53.21;96913.31;2091305;28;20192;-66
2023/09/29 09:42:45;;;;;;;5.88;2.45;;;;;;;24.98;53.77;96910.16;2093293;28;20299;-66
2023/09/29 09:43:46;;;;;;;10.48;3.25;;;;;;;25.41;52.52;96914.69;2089127;28;20207;-66
2023/09/29 09:44:48;;;;;;;5.40;2.50;;;;;;;26.23;50.96;96910.88;2092632;28;20241;-66
2023/09/29 09:45:55;;;;;;;5.00;2.60;;;;;;;27.38;48.74;96911.13;2091648;28;20196;-66
2023/09/29 09:47:00;;;;;;;12.25;2.70;;;;;;;28.32;47.56;96917.88;2089989;28;20208;-66
2023/09/29 09:48:05;;;;;;;6.05;2.60;;;;;;;29.15;45.37;96918.25;2087749;28;20231;-67
2023/09/29 09:49:14;;;;;;;5.85;2.60;;;;;;;28.97;45.60;96919.38;2090008;28;20192;-67
2023/09/29 09:50:16;;;;;;;4.93;2.63;;;;;;;28.62;46.05;96916.22;2088689;28;20197;-67
2023/09/29 09:51:31;;;;;;;5.80;2.80;;;;;;;28.85;46.62;96912.75;2091957;28;20288;-67
2023/09/29 09:52:34;;;;;;;3.90;2.05;;;;;;;29.14;45.84;96909.34;2089700;28;20726;-67
2023/09/29 09:53:37;;;;;;;5.22;2.55;;;;;;;29.64;45.26;96904.41;2091856;28;20196;-67
2023/09/29 09:54:46;;;;;;;5.82;2.88;;;;;;;29.71;44.97;96912.59;2091354;28;20201;-67
2023/09/29 09:56:03;;;;;;;10.75;2.42;;;;;;;29.49;44.88;96909.75;2091462;28;20236;-67
2023/09/29 09:57:10;;;;;;;9.18;2.28;;;;;;;29.55;44.47;96896.63;2086004;28;20192;-67
2023/09/29 09:58:13;;;;;;;5.90;2.60;;;;;;;29.63;45.01;96896.53;2087842;28;20641;-67
2023/09/29 09:59:15;;;;;;;6.85;2.80;;;;;;;30.30;44.18;96910.97;2087591;28;20328;-68
2023/09/29 10:00:17;;;;;;;6.22;2.08;;;;;;;29.84;44.67;96905.75;2088886;28;20196;-67
2023/09/29 10:01:20;;;;;;;5.30;3.08;;;;;;;29.89;44.82;96911.44;2088122;28;20259;-67
2023/09/29 10:02:23;;;;;;;8.40;2.10;;;;;;;29.64;45.00;96904.41;2090320;28;20236;-67
2023/09/29 10:03:27;;;;;;;9.48;2.80;;;;;;;30.16;44.40;96904.59;2093377;28;20420;-68
2023/09/29 10:04:32;;;;;;;4.32;2.63;;;;;;;30.03;44.11;96904.38;2088612;28;20192;-67
2023/09/29 10:05:36;;;;;;;7.60;3.00;;;;;;;29.99;44.30;96905.78;2089069;28;20223;-67
2023/09/29 10:06:39;;;;;;;8.30;2.63;;;;;;;29.88;43.94;96901.69;2089010;28;20440;-67
2023/09/29 10:07:45;;;;;;;4.83;2.30;;;;;;;29.71;44.41;96912.59;2090027;28;20548;-67
2023/09/29 10:08:49;;;;;;;5.17;2.90;;;;;;;29.67;44.23;96905.91;2086473;28;20962;-67
2023/09/29 10:09:50;;;;;;;5.17;2.70;;;;;;;29.92;44.09;96903.81;2088556;28;20430;-65
2023/09/29 10:10:52;;;;;;;4.13;2.40;;;;;;;29.38;45.20;96904.84;2087614;28;20857;-66
2023/09/29 10:12:00;;;;;;;4.40;2.50;;;;;;;29.65;45.16;96899.88;2093535;28;20420;-65
2023/09/29 10:13:04;;;;;;;4.93;2.37;;;;;;;29.39;45.08;96903.81;2090738;28;20469;-65
2023/09/29 10:14:08;;;;;;;5.83;2.47;;;;;;;29.84;44.97;96905.75;2092276;28;20459;-65
2023/09/29 10:15:16;;;;;;;5.70;2.83;;;;;;;30.29;44.62;96902.03;2088601;28;20434;-65
2023/09/29 10:16:22;;;;;;;4.60;2.23;;;;;;;30.65;43.66;96903.13;2089645;28;20546;-65
2023/09/29 10:17:25;;;;;;;7.17;2.70;;;;;;;30.28;44.07;96903.09;2090917;28;20476;-65
2023/09/29 10:18:27;;;;;;;7.33;2.50;;;;;;;30.05;44.24;96899.66;2089928;28;20428;-65
2023/09/29 10:19:38;;;;;;;5.27;1.93;;;;;;;30.58;43.85;96903.06;2089422;28;20433;-65
2023/09/29 10:20:39;;;;;;;2.73;1.90;;;;;;;30.22;44.13;96901.16;2090562;28;20417;-65
2023/09/29 10:21:46;;;;;;;9.63;2.47;;;;;;;30.45;43.91;96897.50;2091271;28;20788;-65
2023/09/29 10:22:54;;;;;;;7.90;2.03;;;;;;;30.20;44.56;96903.19;2087917;28;20810;-65
2023/09/29 10:24:00;;;;;;;3.90;2.43;;;;;;;30.23;44.13;96897.44;2089767;28;20426;-66
2023/09/29 10:25:10;;;;;;;4.13;2.37;;;;;;;29.71;44.86;96903.69;2086389;28;20945;-66
2023/09/29 10:26:13;;;;;;;4.60;2.20;;;;;;;29.81;45.16;96896.19;2088520;28;20799;-65
2023/09/29 10:27:30;;;;;;;5.70;2.77;;;;;;;30.10;44.61;96899.94;2091616;28;21173;-65
2023/09/29 10:28:40;;;;;;;5.80;2.90;;;;;;;29.91;44.58;96895.94;2091978;28;20511;-66
2023/09/29 10:29:43;;;;;;;3.90;2.40;;;;;;;30.40;44.08;96889.97;2091253;28;20490;-65
2023/09/29 10:30:45;;;;;;;5.90;2.57;;;;;;;30.35;43.99;96895.09;2091993;28;20469;-65
2023/09/29 10:31:48;;;;;;;9.20;3.20;;;;;;;29.71;44.71;96901.84;2090915;28;20430;-65
2023/09/29 10:32:50;;;;;;;11.77;2.87;;;;;;;29.83;45.08;96902.22;2089556;28;20470;-65
2023/09/29 10:33:54;;;;;;;5.47;2.70;;;;;;;29.71;45.42;96892.94;2088981;28;20916;-65
2023/09/29 10:35:01;;;;;;;4.73;2.80;;;;;;;29.92;44.70;96897.63;2087432;28;20513;-66
2023/09/29 10:36:03;;;;;;;5.10;3.03;;;;;;;30.80;44.48;96878.03;2087890;28;20487;-65
2023/09/29 10:37:04;;;;;;;5.00;2.40;;;;;;;31.27;43.22;96890.09;2091425;28;20823;-65
2023/09/29 10:38:12;;;;;;;5.23;2.27;;;;;;;31.10;43.27;96892.25;2091145;28;20432;-65
2023/09/29 10:39:24;;;;;;;6.03;2.67;;;;;;;31.21;43.64;96885.47;2092170;28;20560;-65
2023/09/29 10:40:31;;;;;;;4.63;2.73;;;;;;;30.73;43.99;96894.13;2088481;28;20536;-65
2023/09/29 10:41:34;;;;;;;5.60;2.50;;;;;;;31.33;42.94;96889.34;2088580;28;20559;-65
2023/09/29 10:42:38;;;;;;;4.13;2.73;;;;;;;31.71;42.42;96889.03;2087759;28;20968;-65
2023/09/29 10:43:43;;;;;;;6.03;2.63;;;;;;;31.19;42.43;96882.16;2084648;28;20438;-66
2023/09/29 10:44:46;;;;;;;4.57;2.60;;;;;;;30.66;43.57;96885.13;2088164;28;20962;-65
2023/09/29 10:45:50;;;;;;;7.90;2.40;;;;;;;30.67;43.62;96890.31;2090879;28;20449;-65
2023/09/29 10:46:51;;;;;;;4.73;2.33;;;;;;;30.87;43.26;96881.63;2090734;28;20436;-65
2023/09/29 10:47:53;;;;;;;6.27;2.73;;;;;;;30.98;43.41;96882.97;2091145;28;20517;-65
2023/09/29 10:48:55;;;;;;;4.40;2.50;;;;;;;30.88;43.47;96885.97;2093444;28;20521;-65
2023/09/29 10:50:04;;;;;;;7.00;2.20;;;;;;;30.79;43.83;96882.56;2092469;28;20508;-65
2023/09/29 10:51:05;;;;;;;6.83;2.80;;;;;;;30.21;44.53;96882.50;2091814;28;20494;-66
2023/09/29 10:52:16;;;;;;;5.47;2.30;;;;;;;30.05;44.56;96886.19;2088239;28;20421;-66
2023/09/29 10:53:22;;;;;;;3.57;1.87;;;;;;;30.18;44.58;96893.63;2092515;28;21093;-66
2023/09/29 10:54:24;;;;;;;5.87;2.40;;;;;;;29.99;44.55;96882.38;2089245;28;20418;-65
2023/09/29 10:55:26;;;;;;;3.60;2.30;;;;;;;30.01;45.13;96885.72;2088775;28;20429;-65
2023/09/29 10:56:27;;;;;;;4.87;2.70;;;;;;;30.27;44.41;96884.41;2090638;28;20420;-65
2023/09/29 10:57:29;;;;;;;5.70;2.50;;;;;;;30.03;45.06;96883.72;2088815;28;20960;-65
2023/09/29 10:58:36;;;;;;;4.53;3.13;;;;;;;30.95;43.88;96871.53;2085684;28;20433;-65
2023/09/29 10:59:48;;;;;;;5.53;2.20;;;;;;;30.48;43.65;96886.38;2086885;28;20460;-65
2023/09/29 11:00:51;;;;;;;4.60;2.70;;;;;;;30.29;44.14;96883.19;2085511;28;20520;-65
2023/09/29 11:01:53;;;;;;;5.10;2.20;;;;;;;30.38;44.82;96883.09;2090882;28;20429;-65
2023/09/29 11:02:55;;;;;;;4.53;2.73;;;;;;;30.75;43.56;96890.22;2087768;28;20450;-66
2023/09/29 11:03:57;;;;;;;4.23;2.60;;;;;;;30.54;44.22;96874.03;2084858;28;20423;-66
2023/09/29 11:05:02;;;;;;;4.95;2.70;;;;;;;30.36;43.79;96890.53;2085708;28;20479;-66
2023/09/29 11:06:08;;;;;;;7.30;2.33;;;;;;;30.47;44.26;96887.34;2088620;28;20200;-65
2023/09/29 11:07:10;;;;;;;7.00;2.50;;;;;;;30.85;43.58;96875.59;2086685;28;20467;-65
2023/09/29 11:08:11;;;;;;;3.93;2.60;;;;;;;31.29;43.06;96877.28;2091947;28;20435;-66
2023/09/29 11:09:19;;;;;;;4.37;2.40;;;;;;;31.69;42.52;96872.22;2088479;28;20532;-65
2023/09/29 11:10:21;;;;;;;9.63;2.63;;;;;;;31.64;42.42;96871.97;2088501;28;20426;-65
2023/09/29 11:11:32;;;;;;;13.63;2.87;;;;;;;31.29;42.82;96879.13;2088074;28;20433;-67
2023/09/29 11:12:36;;;;;;;3.63;2.50;;;;;;;31.51;42.57;96869.16;2091117;28;20952;-66
2023/09/29 11:13:38;;;;;;;6.17;2.73;;;;;;;30.99;43.04;96874.69;2090707;28;21215;-65
2023/09/29 11:14:39;;;;;;;5.43;2.40;;;;;;;31.06;43.23;96872.09;2091952;28;20505;-65
2023/09/29 11:15:41;;;;;;;3.50;2.37;;;;;;;31.44;42.59;96869.09;2087449;28;20468;-65
2023/09/29 11:16:42;;;;;;;5.03;2.20;;;;;;;31.78;42.51;96875.56;2085505;28;20468;-66
2023/09/29 11:17:48;;;;;;;4.60;2.30;;;;;;;31.49;42.46;96869.34;2083739;28;20521;-65
2023/09/29 11:18:50;;;;;;;3.87;2.40;;;;;;;30.73;43.30;96867.19;2092692;28;20427;-65
2023/09/29 11:19:55;;;;;;;3.60;1.93;;;;;;;30.06;44.93;96879.81;2098912;28;20425;-66
2023/09/29 11:20:58;;;;;;;3.97;2.57;;;;;;;29.34;46.09;96867.72;2089856;28;20427;-66
2023/09/29 11:22:00;;;;;;;5.40;2.30;;;;;;;29.05;46.72;96874.66;2088655;28;20943;-65
2023/09/29 11:23:11;;;;;;;7.63;2.07;;;;;;;28.54;47.87;96875.97;2086881;28;20453;-65
2023/09/29 11:24:14;;;;;;;9.83;2.70;;;;;;;29.58;46.28;96872.88;2091759;28;20809;-65
2023/09/29 11:25:17;;;;;;;6.45;2.28;;;;;;;29.34;46.01;96870.41;2088957;28;20432;-66
2023/09/29 11:26:20;;;;;;;7.83;2.90;;;;;;;28.68;47.03;96860.97;2086803;28;20643;-65
2023/09/29 11:27:23;;;;;;;11.60;3.00;;;;;;;28.52;47.79;96868.09;2090059;28;20975;-65
2023/09/29 11:28:26;;;;;;;6.67;2.60;;;;;;;29.07;46.75;96872.63;2090780;28;20519;-65
2023/09/29 11:29:28;;;;;;;8.00;2.33;;;;;;;28.50;47.65;96863.91;2091831;28;20479;-66
2023/09/29 11:30:30;;;;;;;6.60;2.67;;;;;;;28.09;48.62;96864.13;2087660;28;20287;-65
2023/09/29 11:31:31;;;;;;;10.17;2.13;;;;;;;27.95;49.20;96865.63;2087317;28;20235;-66
2023/09/29 11:32:33;;;;;;;5.07;2.50;;;;;;;27.68;49.18;96857.81;2088157;28;20481;-65
2023/09/29 11:33:35;;;;;;;7.55;2.92;;;;;;;28.32;48.94;96865.00;2086777;28;20458;-65
2023/09/29 11:34:37;;;;;;;6.88;2.10;;;;;;;29.47;46.36;96863.41;2086731;28;20196;-65
2023/09/29 11:35:45;;;;;;;5.20;2.50;;;;;;;30.62;44.54;96863.94;2086147;28;20220;-65
2023/09/29 11:37:06;;;;;;;13.60;2.60;;;;;;;31.09;43.07;96861.75;2084792;28;20211;-65
2023/09/29 11:38:08;;;;;;;12.32;2.28;;;;;;;31.55;41.84;96849.69;2091758;28;20513;-66
2023/09/29 11:39:17;;;;;;;11.33;2.30;;;;;;;31.88;41.27;96849.09;2088504;28;20231;-67
2023/09/29 11:40:19;;;;;;;6.40;2.70;;;;;;;32.34;41.20;96853.06;2089691;28;20961;-66
2023/09/29 11:41:22;;;;;;;5.50;2.37;;;;;;;31.89;41.22;96855.31;2091744;28;20439;-65
2023/09/29 11:42:24;;;;;;;11.27;2.47;;;;;;;31.56;41.08;96850.50;2091413;28;20523;-65
2023/09/29 11:43:26;;;;;;;11.70;2.80;;;;;;;31.49;41.58;96842.38;2089388;28;20412;-66
2023/09/29 11:44:28;;;;;;;4.17;2.20;;;;;;;31.41;42.02;96848.75;2090133;28;20420;-65
2023/09/29 11:45:29;;;;;;;3.70;2.47;;;;;;;30.50;42.53;96845.78;2087476;28;20421;-65
2023/09/29 11:46:31;;;;;;;5.67;2.40;;;;;;;29.99;42.53;96858.16;2089314;28;20431;-67
2023/09/29 11:47:33;;;;;;;5.13;2.70;;;;;;;29.31;44.14;96847.41;2089789;28;20453;-65
2023/09/29 11:48:35;;;;;;;5.00;2.67;;;;;;;29.11;44.16;96857.81;2090710;28;20432;-64
2023/09/29 11:49:36;;;;;;;4.00;2.40;;;;;;;28.80;44.39;96839.91;2093141;28;20450;-66
2023/09/29 11:50:38;;;;;;;4.37;2.57;;;;;;;28.74;45.01;96836.09;2092109;28;20905;-65
2023/09/29 11:51:40;;;;;;;5.60;2.40;;;;;;;28.20;45.84;96844.91;2089958;28;20441;-65
2023/09/29 11:52:41;;;;;;;4.67;2.00;;;;;;;28.66;45.37;96849.56;2088384;28;21064;-65
2023/09/29 11:53:43;;;;;;;4.93;2.33;;;;;;;28.44;45.39;96851.19;2088451;28;20468;-65
2023/09/29 11:54:46;;;;;;;4.20;2.67;;;;;;;29.12;44.37;96849.56;2089301;28;20474;-65
2023/09/29 11:55:48;;;;;;;6.10;2.50;;;;;;;29.78;43.95;96845.44;2089500;28;20653;-65
2023/09/29 11:56:49;;;;;;;5.07;2.83;;;;;;;30.20;43.03;96846.63;2088196;28;20201;-65
2023/09/29 11:57:51;;;;;;;7.82;2.40;;;;;;;30.19;43.26;96841.44;2090158;28;20223;-65
2023/09/29 11:58:53;;;;;;;6.23;2.90;;;;;;;30.28;42.94;96843.84;2088989;28;20640;-65
2023/09/29 11:59:55;;;;;;;4.57;2.50;;;;;;;29.60;44.05;96843.13;2085783;28;20433;-65
2023/09/29 12:00:57;;;;;;;5.27;1.87;;;;;;;29.97;44.23;96841.38;2088247;28;20707;-65
2023/09/29 12:01:58;;;;;;;7.05;2.70;;;;;;;30.12;43.75;96844.88;2089274;28;20896;-65
2023/09/29 12:03:05;;;;;;;6.40;2.50;;;;;;;29.84;44.07;96844.69;2087142;28;20291;-65
2023/09/29 12:04:07;;;;;;;3.80;2.60;;;;;;;30.28;44.13;96846.53;2089233;28;20242;-65
2023/09/29 12:05:09;;;;;;;3.95;2.25;;;;;;;29.57;45.53;96846.16;2087804;28;20823;-65
2023/09/29 12:06:11;;;;;;;3.85;2.10;;;;;;;29.07;45.73;96840.38;2091154;28;20231;-65
2023/09/29 12:07:12;;;;;;;4.20;2.40;;;;;;;30.08;44.74;96835.53;2089458;28;20201;-65
2023/09/29 12:08:13;;;;;;;8.07;2.63;;;;;;;29.32;45.16;96828.41;2089921;28;20429;-65
2023/09/29 12:09:17;;;;;;;3.70;2.38;;;;;;;29.22;44.37;96830.50;2087475;28;20455;-65
2023/09/29 12:10:20;;;;;;;7.47;2.60;;;;;;;29.72;44.07;96840.78;2093957;28;20287;-65
2023/09/29 12:11:22;;;;;;;3.50;2.10;;;;;;;29.70;43.23;96837.44;2096189;28;20205;-65
2023/09/29 12:12:23;;;;;;;6.68;2.63;;;;;;;29.33;43.97;96829.22;2088088;28;20457;-65
2023/09/29 12:13:25;;;;;;;5.28;2.83;;;;;;;29.11;44.78;96834.44;2089252;28;20223;-65
2023/09/29 12:14:27;;;;;;;4.03;2.30;;;;;;;29.52;43.84;96829.72;2092523;28;20269;-65
2023/09/29 12:15:29;;;;;;;4.10;2.20;;;;;;;28.41;44.75;96835.44;2091029;28;20543;-65
2023/09/29 12:16:31;;;;;;;9.65;2.92;;;;;;;28.39;45.04;96824.88;2090540;28;20692;-65
2023/09/29 12:17:32;;;;;;;6.68;2.60;;;;;;;28.70;44.86;96837.47;2091706;28;20211;-65
2023/09/29 12:18:34;;;;;;;5.10;3.03;;;;;;;28.98;44.21;96836.91;2088231;28;20199;-65
2023/09/29 12:19:37;;;;;;;4.40;2.63;;;;;;;28.71;44.77;96835.59;2089839;28;20188;-65
2023/09/29 12:20:39;;;;;;;7.00;2.85;;;;;;;28.23;45.93;96841.91;2086405;28;20189;-65
2023/09/29 12:21:41;;;;;;;5.25;2.40;;;;;;;28.02;46.51;96831.72;2089546;28;20211;-65
2023/09/29 12:22:45;;;;;;;4.72;2.30;;;;;;;28.56;45.90;96832.84;2089727;28;20227;-65
2023/09/29 12:23:47;;;;;;;4.93;2.08;;;;;;;28.83;44.84;96831.50;2092319;28;20596;-65
2023/09/29 12:24:49;;;;;;;3.20;1.83;;;;;;;29.24;44.53;96827.63;2085889;28;20201;-65